Nome, AK

4:33 AM AKDT on October 23, 2014 (GMT -0800)
Nome | Change Station
CLOSE
Current Station
Airport
Location: Nome,
Elevation: 36 ft
Nearby Weather Stations
Active Advisory: High Surf Advisory

Elev 36 ft 64.51 °N, 165.45 °W | Updated 40 minutes ago

Overcast
Overcast
28 °F
Feels Like 23 °F
N
5
Wind Variable Wind from East

Today
High -- | Low -- °F
--% Chance of Precip.
Yesterday
High -- | Low -- °F
Precip. -- in
10:19 AM 7:11 PM
Waning Crescent, 0% visible
Pressure 29.85 in
Visibility 10.0 miles
Clouds Overcast 1900 ft
Windchill 23 °F
Dew Point 22 °F
Humidity 78%
Rainfall 0.00 in
Snow Depth Not available.
UV 0 out of 12
Pollen Not available.
Air Quality Not available.
Flu Activity Sporadic
METAR PAOM 231153Z 09004KT 10SM OVC019 M02/M06 A2985 RMK SLP108 T10221056 11011 21022 58004 VIA AUTODIAL

More Conditions Fewer Conditions

Pressure 29.85 in
Visibility 10.0 miles
Clouds Overcast 1900 ft
Windchill 23 °F
Dew Point 22 °F
Humidity 78%
Rainfall 0.00 in
Snow Depth Not available.
UV 0 out of 12
Pollen Not available.
Air Quality Not available.
Flu Activity Sporadic
METAR PAOM 231153Z 09004KT 10SM OVC019 M02/M06 A2985 RMK SLP108 T10221056 11011 21022 58004 VIA AUTODIAL

More Conditions Fewer Conditions

10-Day Weather Forecast

Almanac

Astronomy

Oct. 23, 2014 Rise Set
Actual Time 10:19 AM AKDT 7:11 PM AKDT
Civil Twilight 9:27 AM AKDT 8:02 PM AKDT
Nautical Twilight 8:31 AM AKDT 8:59 PM AKDT
Astronomical Twilight 7:34 AM AKDT 9:55 PM AKDT
Moon 10:09 AM AKDT 7:16 PM AKDT
Length of Visible Light 10h 35m
Length of Day
8h 52m
Tomorrow will be 6m 37s shorter.
Waning Crescent, 0% of the Moon is Illuminated
Today
Waning Crescent
Oct 23
New
Oct 30
First Quarter
Nov 6
Full
Nov 14
Last Quarter

Today's Extremes

State Highs State Lows

Community

WunderPhotos

Upload Photos

1,764,214 photos uploaded!

Nearby

Snow Depth

Station Depth Elevation
Rocky Point 1 in 500 ft
Pargon Creek 0 in 300 ft
Gobblers Knob 1 in 2030 ft
Coldfoot 5 in 1040 ft
Susitna Valley High 0 in 375 ft

Earthquake Activity

City Distance Mag. Time & Date
No recent earthquake activity has been reported nearby.
Minimum magnitude displayed is 2.5.

Coastal Water Temperatures

Place Temperature
No Stations Reporting

Nearby Weather Stations